Baltica — 9HA2607 — position and weather

sailwx.info

Track history (hours):
 
Tides and Currents Weather Stations Pressure Air Temp Water Temp Dewpoint Dewpoint Depression Visibility Wind Speed Wind Dir Waves Ship Positions

Baltica

Last reported at 2015-Jun-28 22:15 UTC. Time now 2015-Jul-01 23:07 UTC.
Position N 59°48' E 019°46'.

Length 157 m; draft 6.8 m.

Type: Cargo ship. MMSI: 215013000.

Date/timePositionNaut miles runAvg speedWind from/ knotsBaromVisibWave heightAir tempDewpointWater temp
2015-Jun-28 22:15N 59°48' E 019°46'1014.7
2015-Jun-28 21:33N 59°40' E 019°59'14214.2
2015-Jun-28 11:32N 57°34' E 017°53'1414.7
2015-Jun-28 10:33N 57°20' E 017°42'1614.8
2015-Jun-28 09:30N 57°06' E 017°31'1614.8
2015-Jun-28 08:24N 56°51' E 017°21'9613.9
2015-Jun-28 01:29N 55°39' E 015°26'1414.8
2015-Jun-28 00:33N 55°32' E 015°06'1514.8
2015-Jun-27 23:33N 55°25' E 014°43'1514.8
2015-Jun-27 22:33N 55°14' E 014°25'1514.4
2015-Jun-27 21:31N 55°10' E 013°59'1514.8
2015-Jun-27 20:28N 55°11' E 013°32'1314.8
2015-Jun-27 19:33N 55°12' E 013°09'1514.7
2015-Jun-27 18:33N 55°16' E 012°44'1212.3
2015-Jun-27 17:33N 55°29' E 012°41'10 9.8
2015-Jun-27 16:34N 55°38' E 012°42'1010.5
2015-Jun-27 15:34N 55°49' E 012°42'1413.8
2015-Jun-27 14:33N 56°02' E 012°39'1313.4
2015-Jun-27 13:33N 56°11' E 012°20'1514.3
2015-Jun-27 12:32N 56°21' E 012°01'1515.2
2015-Jun-27 11:33N 56°35' E 011°55'1515.0
2015-Jun-27 10:33N 56°50' E 011°48'1515.1
2015-Jun-27 09:33N 57°04' E 011°39'1514.9
2015-Jun-27 08:33N 57°18' E 011°30'1413.9
2015-Jun-27 07:33N 57°30' E 011°15'1714.4
2015-Jun-27 06:25N 57°42' E 010°55'2613.8
2015-Jun-27 04:33N 57°43' E 010°07'1914.8
2015-Jun-27 03:17N 57°38' E 009°33'24714.7
2015-Jun-26 10:31N 54°17' E 005°17'1515.4
2015-Jun-26 09:33N 54°03' E 005°07'1515.4
2015-Jun-26 08:33N 53°49' E 004°57'1515.4
2015-Jun-26 07:33N 53°34' E 004°49'1515.2
2015-Jun-26 06:33N 53°21' E 004°37'1515.1
2015-Jun-26 05:33N 53°07' E 004°27'1515.2
2015-Jun-26 04:33N 52°54' E 004°15'1514.9
2015-Jun-26 03:33N 52°42' E 003°59'1515.0
2015-Jun-26 02:33N 52°32' E 003°41'1515.1
2015-Jun-26 01:33N 52°18' E 003°31'1515.3
2015-Jun-26 00:33N 52°03' E 003°25'1615.3
2015-Jun-25 23:29N 51°48' E 003°16'1415.1
2015-Jun-25 22:34N 51°35' E 003°10'1515.4
2015-Jun-25 21:33N 51°26' E 002°50'8 7.6
2015-Jun-25 20:33N 51°24' E 003°02'6 6.3
2015-Jun-25 19:32N 51°21' E 003°11'0 0.0
2015-Jun-25 18:32N 51°21' E 003°11'0 0.0
2015-Jun-25 17:32N 51°21' E 003°11'0 0.0
2015-Jun-25 16:32N 51°21' E 003°11'0 0.0
2015-Jun-25 15:32N 51°21' E 003°11'0 0.0
2015-Jun-25 14:32N 51°21' E 003°11'0 0.0
2015-Jun-25 13:32N 51°21' E 003°11'0 0.0
2015-Jun-25 12:32N 51°21' E 003°11'0 0.0
2015-Jun-25 11:32N 51°21' E 003°11'1 0.5
2015-Jun-25 10:33N 51°21' E 003°11'1110.8
2015-Jun-25 09:33N 51°22' E 002°54'1312.9
2015-Jun-25 08:33N 51°22' E 002°33'1414.5
2015-Jun-25 07:33N 51°19' E 002°11'1515.1
2015-Jun-25 06:34N 51°28' E 001°51'1515.1
2015-Jun-25 05:33N 51°28' E 001°27'1414.1
2015-Jun-25 04:34N 51°30' E 001°05'1514.8
2015-Jun-25 03:34N 51°30' E 000°41'1212.3
2015-Jun-25 02:33N 51°27' E 000°22'1 0.6
2015-Jun-25 01:34N 51°27' E 000°21'0 0.3
2015-Jun-25 00:34N 51°27' E 000°21'0 0.0
2015-Jun-24 23:34N 51°27' E 000°21'0 0.0
2015-Jun-24 22:33N 51°27' E 000°21'0 0.0
2015-Jun-24 21:34N 51°27' E 000°21'1 0.5
2015-Jun-24 20:34N 51°27' E 000°21'0 0.4
2015-Jun-24 19:34N 51°27' E 000°21'8 7.8
2015-Jun-24 18:33N 51°30' E 000°32'1515.3
2015-Jun-24 17:34N 51°29' E 000°57'1616.4
2015-Jun-24 16:33N 51°29' E 001°23'1514.7
2015-Jun-24 15:33N 51°29' E 001°47'1615.8
2015-Jun-24 14:33N 51°22' E 002°10'1615.8
2015-Jun-24 13:33N 51°23' E 002°35'1313.4
2015-Jun-24 12:33N 51°23' E 002°57'9 8.6
2015-Jun-24 11:32N 51°21' E 003°11'0 0.0
2015-Jun-24 10:32N 51°21' E 003°11'0 0.0
2015-Jun-24 09:32N 51°21' E 003°11'0 0.0
2015-Jun-24 08:32N 51°21' E 003°11'0 0.0
2015-Jun-24 07:32N 51°21' E 003°11'0 0.0
2015-Jun-24 06:32N 51°21' E 003°11'0 0.0
2015-Jun-24 05:32N 51°21' E 003°11'0 0.0
2015-Jun-24 04:32N 51°21' E 003°11'0 0.0
2015-Jun-24 03:32N 51°21' E 003°11'0 0.0
2015-Jun-24 02:29N 51°21' E 003°11'0 0.0
2015-Jun-24 01:32N 51°21' E 003°11'0 0.0
2015-Jun-24 00:32N 51°21' E 003°11'1 0.9
2015-Jun-23 23:34N 51°22' E 003°11'1212.4
2015-Jun-23 22:34N 51°25' E 003°30'1313.1
2015-Jun-23 21:34N 51°21' E 003°50'1211.7
2015-Jun-23 20:33N 51°23' E 004°09'9 8.8
2015-Jun-23 19:33N 51°16' E 004°18'1 1.9
2015-Jun-23 19:04N 51°16' E 004°17'51 2.2
2015-Jun-22 19:33N 51°50' E 003°17'6113.5
2015-Jun-22 15:03N 52°49' E 003°45'714.2
2015-Jun-22 14:33N 52°54' E 003°52'1614.1
2015-Jun-22 13:25N 53°05' E 004°12'2613.8
2015-Jun-22 11:31N 53°27' E 004°34'1813.9
2015-Jun-22 10:13N 53°44' E 004°45'1013.8
2015-Jun-22 09:32N 53°53' E 004°51'1313.8
2015-Jun-22 08:33N 54°06' E 004°58'1413.7
2015-Jun-22 07:32N 54°18' E 005°10'9014.3
2015-Jun-22 01:14N 55°35' E 006°30'18414.3
2015-Jun-21 12:20N 57°45' E 010°27'1114.0
2015-Jun-21 11:33N 57°48' E 010°47'1514.8
2015-Jun-21 10:34N 57°38' E 011°08'1515.1
2015-Jun-21 09:34N 57°27' E 011°27'1515.5
2015-Jun-21 08:34N 57°13' E 011°37'1515.2
2015-Jun-21 07:33N 56°58' E 011°47'1515.0
2015-Jun-21 06:33N 56°44' E 011°56'1614.8
2015-Jun-21 05:31N 56°29' E 012°01'1111.2
2015-Jun-21 04:34N 56°19' E 012°06'1212.1
2015-Jun-21 03:34N 56°11' E 012°23'1212.0
2015-Jun-21 02:34N 56°03' E 012°39'1211.5
2015-Jun-21 01:34N 55°52' E 012°43'1212.2
2015-Jun-21 00:34N 55°40' E 012°42'1010.1
2015-Jun-20 23:34N 55°30' E 012°43'1211.8
2015-Jun-20 22:33N 55°18' E 012°43'1212.1
2015-Jun-20 21:34N 55°16' E 013°04'1312.6
2015-Jun-20 20:31N 55°15' E 013°27'1713.2
2015-Jun-20 19:13N 55°14' E 013°57'913.3
2015-Jun-20 18:34N 55°14' E 014°12'1312.8
2015-Jun-20 17:33N 55°22' E 014°29'1313.2
2015-Jun-20 16:34N 55°30' E 014°48'1313.4
2015-Jun-20 15:33N 55°37' E 015°09'1313.4
2015-Jun-20 14:33N 55°43' E 015°30'9612.8
2015-Jun-20 07:03N 56°58' E 017°18'713.7
2015-Jun-20 06:34N 57°04' E 017°22'1413.5
2015-Jun-20 05:33N 57°17' E 017°32'  
Track history (hours):
 
Tides and Currents Weather Stations Pressure Air Temp Water Temp Dewpoint Dewpoint Depression Visibility Wind Speed Wind Dir Waves Ship Positions

Baltica

Last reported at 2015-Jun-28 22:15 UTC. Time now 2015-Jul-01 23:07 UTC.
Position N 59°48' E 019°46'.

Length 157 m; draft 6.8 m.

Type: Cargo ship. MMSI: 215013000.

Date/timePositionNaut miles runAvg speedWind from/ knotsBaromVisibWave heightAir tempDewpointWater temp
2015-Jun-28 22:15N 59°48' E 019°46'1014.7
2015-Jun-28 21:33N 59°40' E 019°59'14214.2
2015-Jun-28 11:32N 57°34' E 017°53'1414.7
2015-Jun-28 10:33N 57°20' E 017°42'1614.8
2015-Jun-28 09:30N 57°06' E 017°31'1614.8
2015-Jun-28 08:24N 56°51' E 017°21'9613.9
2015-Jun-28 01:29N 55°39' E 015°26'1414.8
2015-Jun-28 00:33N 55°32' E 015°06'1514.8
2015-Jun-27 23:33N 55°25' E 014°43'1514.8
2015-Jun-27 22:33N 55°14' E 014°25'1514.4
2015-Jun-27 21:31N 55°10' E 013°59'1514.8
2015-Jun-27 20:28N 55°11' E 013°32'1314.8
2015-Jun-27 19:33N 55°12' E 013°09'1514.7
2015-Jun-27 18:33N 55°16' E 012°44'1212.3
2015-Jun-27 17:33N 55°29' E 012°41'10 9.8
2015-Jun-27 16:34N 55°38' E 012°42'1010.5
2015-Jun-27 15:34N 55°49' E 012°42'1413.8
2015-Jun-27 14:33N 56°02' E 012°39'1313.4
2015-Jun-27 13:33N 56°11' E 012°20'1514.3
2015-Jun-27 12:32N 56°21' E 012°01'1515.2
2015-Jun-27 11:33N 56°35' E 011°55'1515.0
2015-Jun-27 10:33N 56°50' E 011°48'1515.1
2015-Jun-27 09:33N 57°04' E 011°39'1514.9
2015-Jun-27 08:33N 57°18' E 011°30'1413.9
2015-Jun-27 07:33N 57°30' E 011°15'1714.4
2015-Jun-27 06:25N 57°42' E 010°55'2613.8
2015-Jun-27 04:33N 57°43' E 010°07'1914.8
2015-Jun-27 03:17N 57°38' E 009°33'24714.7
2015-Jun-26 10:31N 54°17' E 005°17'1515.4
2015-Jun-26 09:33N 54°03' E 005°07'1515.4
2015-Jun-26 08:33N 53°49' E 004°57'1515.4
2015-Jun-26 07:33N 53°34' E 004°49'1515.2
2015-Jun-26 06:33N 53°21' E 004°37'1515.1
2015-Jun-26 05:33N 53°07' E 004°27'1515.2
2015-Jun-26 04:33N 52°54' E 004°15'1514.9
2015-Jun-26 03:33N 52°42' E 003°59'1515.0
2015-Jun-26 02:33N 52°32' E 003°41'1515.1
2015-Jun-26 01:33N 52°18' E 003°31'1515.3
2015-Jun-26 00:33N 52°03' E 003°25'1615.3
2015-Jun-25 23:29N 51°48' E 003°16'1415.1
2015-Jun-25 22:34N 51°35' E 003°10'1515.4
2015-Jun-25 21:33N 51°26' E 002°50'8 7.6
2015-Jun-25 20:33N 51°24' E 003°02'6 6.3
2015-Jun-25 19:32N 51°21' E 003°11'0 0.0
2015-Jun-25 18:32N 51°21' E 003°11'0 0.0
2015-Jun-25 17:32N 51°21' E 003°11'0 0.0
2015-Jun-25 16:32N 51°21' E 003°11'0 0.0
2015-Jun-25 15:32N 51°21' E 003°11'0 0.0
2015-Jun-25 14:32N 51°21' E 003°11'0 0.0
2015-Jun-25 13:32N 51°21' E 003°11'0 0.0
2015-Jun-25 12:32N 51°21' E 003°11'0 0.0
2015-Jun-25 11:32N 51°21' E 003°11'1 0.5
2015-Jun-25 10:33N 51°21' E 003°11'1110.8
2015-Jun-25 09:33N 51°22' E 002°54'1312.9
2015-Jun-25 08:33N 51°22' E 002°33'1414.5
2015-Jun-25 07:33N 51°19' E 002°11'1515.1
2015-Jun-25 06:34N 51°28' E 001°51'1515.1
2015-Jun-25 05:33N 51°28' E 001°27'1414.1
2015-Jun-25 04:34N 51°30' E 001°05'1514.8
2015-Jun-25 03:34N 51°30' E 000°41'1212.3
2015-Jun-25 02:33N 51°27' E 000°22'1 0.6
2015-Jun-25 01:34N 51°27' E 000°21'0 0.3
2015-Jun-25 00:34N 51°27' E 000°21'0 0.0
2015-Jun-24 23:34N 51°27' E 000°21'0 0.0
2015-Jun-24 22:33N 51°27' E 000°21'0 0.0
2015-Jun-24 21:34N 51°27' E 000°21'1 0.5
2015-Jun-24 20:34N 51°27' E 000°21'0 0.4
2015-Jun-24 19:34N 51°27' E 000°21'8 7.8
2015-Jun-24 18:33N 51°30' E 000°32'1515.3
2015-Jun-24 17:34N 51°29' E 000°57'1616.4
2015-Jun-24 16:33N 51°29' E 001°23'1514.7
2015-Jun-24 15:33N 51°29' E 001°47'1615.8
2015-Jun-24 14:33N 51°22' E 002°10'1615.8
2015-Jun-24 13:33N 51°23' E 002°35'1313.4
2015-Jun-24 12:33N 51°23' E 002°57'9 8.6
2015-Jun-24 11:32N 51°21' E 003°11'0 0.0
2015-Jun-24 10:32N 51°21' E 003°11'0 0.0
2015-Jun-24 09:32N 51°21' E 003°11'0 0.0
2015-Jun-24 08:32N 51°21' E 003°11'0 0.0
2015-Jun-24 07:32N 51°21' E 003°11'0 0.0
2015-Jun-24 06:32N 51°21' E 003°11'0 0.0
2015-Jun-24 05:32N 51°21' E 003°11'0 0.0
2015-Jun-24 04:32N 51°21' E 003°11'0 0.0
2015-Jun-24 03:32N 51°21' E 003°11'0 0.0
2015-Jun-24 02:29N 51°21' E 003°11'0 0.0
2015-Jun-24 01:32N 51°21' E 003°11'0 0.0
2015-Jun-24 00:32N 51°21' E 003°11'1 0.9
2015-Jun-23 23:34N 51°22' E 003°11'1212.4
2015-Jun-23 22:34N 51°25' E 003°30'1313.1
2015-Jun-23 21:34N 51°21' E 003°50'1211.7
2015-Jun-23 20:33N 51°23' E 004°09'9 8.8
2015-Jun-23 19:33N 51°16' E 004°18'1 1.9
2015-Jun-23 19:04N 51°16' E 004°17'51 2.2
2015-Jun-22 19:33N 51°50' E 003°17'6113.5
2015-Jun-22 15:03N 52°49' E 003°45'714.2
2015-Jun-22 14:33N 52°54' E 003°52'1614.1
2015-Jun-22 13:25N 53°05' E 004°12'2613.8
2015-Jun-22 11:31N 53°27' E 004°34'1813.9
2015-Jun-22 10:13N 53°44' E 004°45'1013.8
2015-Jun-22 09:32N 53°53' E 004°51'1313.8
2015-Jun-22 08:33N 54°06' E 004°58'1413.7
2015-Jun-22 07:32N 54°18' E 005°10'9014.3
2015-Jun-22 01:14N 55°35' E 006°30'18414.3
2015-Jun-21 12:20N 57°45' E 010°27'1114.0
2015-Jun-21 11:33N 57°48' E 010°47'1514.8
2015-Jun-21 10:34N 57°38' E 011°08'1515.1
2015-Jun-21 09:34N 57°27' E 011°27'1515.5
2015-Jun-21 08:34N 57°13' E 011°37'1515.2
2015-Jun-21 07:33N 56°58' E 011°47'1515.0
2015-Jun-21 06:33N 56°44' E 011°56'1614.8
2015-Jun-21 05:31N 56°29' E 012°01'1111.2
2015-Jun-21 04:34N 56°19' E 012°06'1212.1
2015-Jun-21 03:34N 56°11' E 012°23'1212.0
2015-Jun-21 02:34N 56°03' E 012°39'1211.5
2015-Jun-21 01:34N 55°52' E 012°43'1212.2
2015-Jun-21 00:34N 55°40' E 012°42'1010.1
2015-Jun-20 23:34N 55°30' E 012°43'1211.8
2015-Jun-20 22:33N 55°18' E 012°43'1212.1
2015-Jun-20 21:34N 55°16' E 013°04'1312.6
2015-Jun-20 20:31N 55°15' E 013°27'1713.2
2015-Jun-20 19:13N 55°14' E 013°57'913.3
2015-Jun-20 18:34N 55°14' E 014°12'1312.8
2015-Jun-20 17:33N 55°22' E 014°29'1313.2
2015-Jun-20 16:34N 55°30' E 014°48'1313.4
2015-Jun-20 15:33N 55°37' E 015°09'1313.4
2015-Jun-20 14:33N 55°43' E 015°30'9612.8
2015-Jun-20 07:03N 56°58' E 017°18'713.7
2015-Jun-20 06:34N 57°04' E 017°22'1413.5
2015-Jun-20 05:33N 57°17' E 017°32'  

Dump ship's entire track history